Newton, KS

7:11 AM CST on November 21, 2017 (GMT -0600)
Newton City County

Weather History for KEWK - May, 2014

Change the Weather History Date:

Wednesday, May 7, 2014

  Actual Average Record
Temperature  
Mean Temperature 80 °F -  
Max Temperature 93 °F 70 °F 93 °F (2014)
Min Temperature 66 °F 50 °F 42 °F (1999)
Cooling Degree Days 14    
Growing Degree Days 30 (Base 50)    
Moisture  
Dew Point 57 °F    
Average Humidity 50    
Maximum Humidity 73    
Minimum Humidity 26    
Precipitation  
Precipitation 0.00 in - - ()
Sea Level Pressure  
Sea Level Pressure 29.64 in    
Wind  
Wind Speed 19 mph (South)    
Max Wind Speed 26 mph    
Max Gust Speed 33 mph    
Visibility 10 miles    
Events Thunderstorm    
Averages and records for this station are not official NWS values.
T = Trace of Precipitation, MM = Missing Value Source: NWS Daily Summary

Daily Weather History Graph

Daily Weather History Graph

Search for Another Location

Airport or City:

Trip Planner

Search our weather history database for the weather conditions in past years. The results will help you decide how hot, cold, wet, or windy it might be!

Date:

Astronomy

May. 07, 2014 Rise Set
Actual Time 6:26 AM CDT 8:25 PM CDT
Civil Twilight 5:57 AM CDT 8:54 PM CDT
Nautical Twilight 5:22 AM CDT 9:29 PM CDT
Astronomical Twilight 4:44 AM CDT 10:07 PM CDT
Moon 1:38 PM CDT (5/7) 2:19 AM CDT (5/7)
Length of Visible Light 14h 57m
Length of Day
13h 59m
First Quarter, 55% of the Moon is Illuminated
May 7
First Quarter
May 14
Full
May 21
Last Quarter
May 28
New
Jun 5
First Quarter

Hourly Weather History & Observations

Time (CDT) Temp. Heat Index Dew Point Humidity Pressure Visibility Wind Dir Wind Speed Gust Speed Precip Events Conditions
12:15 AM 75.2 °F - 57.2 °F 53% 29.61 in 10.0 mi South 20.7 mph 27.6 mph N/A   Clear
12:35 AM 73.4 °F - 57.2 °F 57% 29.61 in 10.0 mi South 19.6 mph 24.2 mph N/A   Clear
12:55 AM 73.4 °F - 57.2 °F 57% 29.62 in 10.0 mi South 19.6 mph 25.3 mph N/A   Clear
1:15 AM 73.4 °F - 57.2 °F 57% 29.62 in 10.0 mi South 18.4 mph 27.6 mph N/A   Clear
1:35 AM 71.6 °F - 57.2 °F 60% 29.62 in 10.0 mi South 18.4 mph 26.5 mph N/A   Clear
1:55 AM 71.6 °F - 57.2 °F 60% 29.61 in 10.0 mi South 17.3 mph 24.2 mph N/A   Clear
2:15 AM 71.6 °F - 57.2 °F 60% 29.61 in 10.0 mi South 17.3 mph 20.7 mph N/A   Clear
2:35 AM 71.6 °F - 57.2 °F 60% 29.61 in 10.0 mi South 16.1 mph 21.9 mph N/A   Clear
2:55 AM 69.8 °F - 57.2 °F 64% 29.60 in 10.0 mi South 15.0 mph 25.3 mph N/A   Clear
3:15 AM 69.8 °F - 57.2 °F 64% 29.60 in 10.0 mi South 18.4 mph 21.9 mph N/A   Clear
3:35 AM 69.8 °F - 57.2 °F 64% 29.60 in 10.0 mi South 16.1 mph - N/A   Clear
3:55 AM 69.8 °F - 57.2 °F 64% 29.60 in 10.0 mi South 16.1 mph 21.9 mph N/A   Clear
4:15 AM 69.8 °F - 57.2 °F 64% 29.61 in 10.0 mi South 18.4 mph 23.0 mph N/A   Clear
4:35 AM 68.0 °F - 57.2 °F 68% 29.61 in 10.0 mi South 17.3 mph 25.3 mph N/A   Clear
4:55 AM 68.0 °F - 57.2 °F 68% 29.61 in 10.0 mi South 17.3 mph 23.0 mph N/A   Clear
5:15 AM 68.0 °F - 57.2 °F 68% 29.61 in 10.0 mi South 17.3 mph 23.0 mph N/A   Clear
5:35 AM 66.2 °F - 57.2 °F 73% 29.62 in 10.0 mi South 15.0 mph 21.9 mph N/A   Clear
5:55 AM 66.2 °F - 57.2 °F 73% 29.63 in 10.0 mi South 16.1 mph 20.7 mph N/A   Clear
6:15 AM 66.2 °F - 57.2 °F 73% 29.63 in 10.0 mi South 17.3 mph 23.0 mph N/A   Clear
6:35 AM 66.2 °F - 57.2 °F 73% 29.64 in 10.0 mi South 16.1 mph 23.0 mph N/A   Clear
6:55 AM 66.2 °F - 57.2 °F 73% 29.64 in 10.0 mi South 17.3 mph 23.0 mph N/A   Clear
7:15 AM 66.2 °F - 57.2 °F 73% 29.65 in 10.0 mi South 18.4 mph 24.2 mph N/A   Clear
7:35 AM 68.0 °F - 57.2 °F 68% 29.65 in 10.0 mi South 19.6 mph 25.3 mph N/A   Clear
7:55 AM 69.8 °F - 57.2 °F 64% 29.66 in 10.0 mi South 19.6 mph 25.3 mph N/A   Clear
8:15 AM 69.8 °F - 57.2 °F 64% 29.66 in 10.0 mi South 19.6 mph 33.4 mph N/A   Clear
8:35 AM 71.6 °F - 57.2 °F 60% 29.67 in 10.0 mi South 23.0 mph 27.6 mph N/A   Clear
8:55 AM 71.6 °F - 59.0 °F 64% 29.67 in 10.0 mi South 23.0 mph 31.1 mph N/A   Clear
9:15 AM 73.4 °F - 57.2 °F 57% 29.67 in 10.0 mi SSW 23.0 mph 28.8 mph N/A   Clear
9:35 AM 75.2 °F - 57.2 °F 53% 29.67 in 10.0 mi SSW 18.4 mph 26.5 mph N/A   Clear
9:55 AM 77.0 °F - 57.2 °F 50% 29.67 in 10.0 mi South 19.6 mph 25.3 mph N/A   Clear
10:15 AM 78.8 °F - 57.2 °F 47% 29.66 in 10.0 mi SSW 20.7 mph 26.5 mph N/A   Clear
10:35 AM 80.6 °F 80.8 °F 57.2 °F 45% 29.66 in 10.0 mi SSW 20.7 mph 25.3 mph N/A   Clear
10:55 AM 82.4 °F 82.0 °F 57.2 °F 42% 29.66 in 10.0 mi SSW 21.9 mph - N/A   Clear
11:15 AM 82.4 °F 82.0 °F 57.2 °F 42% 29.67 in 10.0 mi South 20.7 mph 28.8 mph N/A   Clear
11:35 AM 84.2 °F 83.5 °F 57.2 °F 40% 29.67 in 10.0 mi South 21.9 mph 27.6 mph N/A   Clear
12:15 PM 86.0 °F 84.9 °F 57.2 °F 37% 29.67 in 10.0 mi South 18.4 mph - N/A   Clear
12:55 PM 87.8 °F 86.1 °F 55.4 °F 33% 29.66 in 10.0 mi South 21.9 mph 28.8 mph N/A   Clear
1:15 PM 89.6 °F 87.7 °F 55.4 °F 31% 29.66 in 10.0 mi South 18.4 mph 25.3 mph N/A   Clear
1:35 PM 89.6 °F 87.7 °F 55.4 °F 31% 29.66 in 10.0 mi South 21.9 mph 25.3 mph N/A   Clear
1:55 PM 91.4 °F 89.4 °F 55.4 °F 29% 29.65 in 10.0 mi SSW 19.6 mph 25.3 mph N/A   Clear
2:15 PM 91.4 °F 89.4 °F 55.4 °F 29% 29.65 in 10.0 mi South 20.7 mph 24.2 mph N/A   Clear
2:35 PM 91.4 °F 89.4 °F 55.4 °F 29% 29.65 in 10.0 mi South 16.1 mph 26.5 mph N/A   Clear
2:55 PM 93.2 °F 91.3 °F 55.4 °F 28% 29.64 in 10.0 mi South 23.0 mph 28.8 mph N/A   Clear
3:15 PM 93.2 °F 91.3 °F 55.4 °F 28% 29.64 in 10.0 mi South 18.4 mph 27.6 mph N/A   Clear
3:35 PM 93.2 °F 91.3 °F 55.4 °F 28% 29.63 in 10.0 mi South 24.2 mph 29.9 mph N/A   Clear
3:55 PM 93.2 °F 90.8 °F 53.6 °F 26% 29.63 in 10.0 mi South 26.5 mph 29.9 mph N/A   Clear
4:15 PM 93.2 °F 90.8 °F 53.6 °F 26% 29.62 in 10.0 mi South 21.9 mph 31.1 mph N/A   Clear
4:35 PM 91.4 °F 89.4 °F 55.4 °F 29% 29.62 in 10.0 mi South 25.3 mph 31.1 mph N/A   Clear
4:55 PM 91.4 °F 89.4 °F 55.4 °F 29% 29.62 in 10.0 mi SSE 26.5 mph 32.2 mph N/A   Clear
5:15 PM 91.4 °F 89.4 °F 55.4 °F 29% 29.61 in 10.0 mi South 23.0 mph 31.1 mph N/A   Clear
5:35 PM 87.8 °F 85.7 °F 53.6 °F 31% 29.61 in 10.0 mi South 21.9 mph 28.8 mph N/A   Clear
5:55 PM 87.8 °F 85.7 °F 53.6 °F 31% 29.61 in 10.0 mi South 24.2 mph 32.2 mph N/A Thunderstorm Clear
6:15 PM 84.2 °F 83.0 °F 55.4 °F 37% 29.64 in 10.0 mi South 19.6 mph 29.9 mph N/A   Clear
6:35 PM 84.2 °F 83.0 °F 55.4 °F 37% 29.63 in 10.0 mi South 21.9 mph 27.6 mph N/A   Clear
6:55 PM 84.2 °F 83.5 °F 57.2 °F 40% 29.64 in 10.0 mi SSE 18.4 mph 27.6 mph N/A   Clear
7:15 PM 84.2 °F 83.5 °F 57.2 °F 40% 29.63 in 10.0 mi South 16.1 mph 24.2 mph N/A   Clear
7:35 PM 84.2 °F 83.0 °F 55.4 °F 37% 29.63 in 10.0 mi SSE 18.4 mph 25.3 mph N/A   Clear
7:55 PM 82.4 °F 81.7 °F 55.4 °F 39% 29.63 in 10.0 mi South 23.0 mph 31.1 mph N/A   Clear
8:15 PM 82.4 °F 81.4 °F 53.6 °F 37% 29.62 in 10.0 mi South 23.0 mph 31.1 mph N/A   Clear
8:35 PM 80.6 °F 80.3 °F 53.6 °F 39% 29.62 in 10.0 mi SSE 15.0 mph 24.2 mph N/A   Clear
8:55 PM 78.8 °F - 55.4 °F 44% 29.65 in 10.0 mi South 19.6 mph 32.2 mph N/A   Clear
9:15 PM 78.8 °F - 57.2 °F 47% 29.66 in 10.0 mi SSE 20.7 mph 33.4 mph N/A   Clear
9:35 PM 77.0 °F - 59.0 °F 54% 29.68 in 10.0 mi South 21.9 mph 28.8 mph N/A   Clear
9:55 PM 75.2 °F - 59.0 °F 57% 29.69 in 10.0 mi South 20.7 mph 32.2 mph N/A   Partly Cloudy
10:15 PM 75.2 °F - 59.0 °F 57% 29.71 in 10.0 mi South 20.7 mph 25.3 mph N/A   Partly Cloudy
10:35 PM 73.4 °F - 59.0 °F 61% 29.73 in 10.0 mi South 15.0 mph 23.0 mph N/A   Scattered Clouds
10:55 PM 73.4 °F - 60.8 °F 65% 29.73 in 10.0 mi South 16.1 mph 21.9 mph N/A   Mostly Cloudy
11:15 PM 71.6 °F - 60.8 °F 69% 29.71 in 10.0 mi South 18.4 mph 25.3 mph N/A   Mostly Cloudy
11:35 PM 71.6 °F - 59.0 °F 64% 29.71 in 10.0 mi South 10.4 mph - N/A   Partly Cloudy
11:55 PM 71.6 °F - 59.0 °F 64% 29.69 in 10.0 mi SSE 9.2 mph - N/A   Partly Cloudy